Accueil
METAR-TAF:

METAR-TAF

Aéroports :

Aéroport de Lorient-Bretagne-Sud - BAN Lann-Bihoué

Lorient, France

latitude: 47-46N, longitude: 003-27W, altitude: 52 m

Observation

Le bulletin a été fait il y a 45 minutes, à 03:30 UTC
Vent 8 kt de nord-est
Température 11°C
Humidité 82%
Pression 1026 hPa
Visibilité 10 km ou plus
pas de nuages en-dessous de 1500 mètres et pas de cumulonimbus.

METAR: LFRH 120330Z AUTO 05008KT CAVOK 11/08 Q1026 NOSIG

Heure: 06:15 (04:15 UTC)

Prévision

Le bulletin a été fait il y a 5 heures et 15 minutes, à 23:00 UTC
Prévision valable du 12 à 00 UTC au 12 à 24 UTC
Vent 12 kt de nord-est
Visibilité 10 km ou plus
pas de nuages en-dessous de 1500 mètres et pas de cumulonimbus.
Evoluant progressivement
du 12 à 14 UTC au 12 à 16 UTC
Vent 10 kt de ouest
Evoluant progressivement
du 12 à 18 UTC au 12 à 20 UTC
Vent 12 kt de nord/nord-est

TAF: LFRH 112300Z 1200/1224 04012KT CAVOK BECMG 1214/1216 27010KT BECMG 1218/1220 03012KT

Observations et prévisions météorologiques de plus de 4000 aéroports (messages METAR et TAF).

Les stations disponibles sont représentées par des disques jaunes et rouges sur la carte.

Passer la souris dessus pour voir le nom de la station.

Cliquer dessus pour voir les observations et prévisions météorologiques.

Pour changer de carte: cliquez sur les boutons verts avec une croix noire pour zoomer, sur le bouton vert avec un tiret pour effectuer un zoom arrière, ou sur les flèches vertes pour les cartes adjacentes.


METAR-TAF: